METAR Data
IDs: Format: Raw Decoded Include TAF

Data at: 0130 UTC 24 Oct 2019

METAR for:KSLB (Storm Lake Muni, IA, US)
Text:KSLB 240115Z AUTO 32009KT 10SM OVC044 04/02 A3009 RMK AO2
Temperature: 4.0°C ( 39°F)
Dewpoint: 2.0°C ( 36°F) [RH = 87%]
Pressure (altimeter):30.09 inches Hg (1019.0 mb)
Winds:from the NW (320 degrees) at 10 MPH (9 knots; 4.6 m/s)
Visibility:10 or more sm (16+ km)
Ceiling:4400 feet AGL
Clouds: overcast cloud deck at 4400 feet AGL
QC Flag:automated observation with no human augmentation